sensor_id;sensor_type;location;lat;lon;timestamp;P1;durP1;ratioP1;P2;durP2;ratioP2
55150;SDS011;41041;43.162;20.538;2023-03-26T00:01:12;10.15;;;4.30;;
55150;SDS011;41041;43.162;20.538;2023-03-26T00:03:49;7.60;;;3.63;;
55150;SDS011;41041;43.162;20.538;2023-03-26T00:06:23;7.80;;;3.50;;
55150;SDS011;41041;43.162;20.538;2023-03-26T00:08:50;7.22;;;4.10;;
55150;SDS011;41041;43.162;20.538;2023-03-26T00:14:20;10.52;;;4.20;;
55150;SDS011;41041;43.162;20.538;2023-03-26T00:16:46;10.45;;;5.18;;
55150;SDS011;41041;43.162;20.538;2023-03-26T00:22:02;6.18;;;3.58;;
55150;SDS011;41041;43.162;20.538;2023-03-26T00:24:29;7.80;;;3.70;;
55150;SDS011;41041;43.162;20.538;2023-03-26T00:26:55;6.75;;;3.88;;
55150;SDS011;41041;43.162;20.538;2023-03-26T00:29:21;7.47;;;5.03;;
55150;SDS011;41041;43.162;20.538;2023-03-26T00:31:48;6.03;;;4.45;;
55150;SDS011;41041;43.162;20.538;2023-03-26T00:34:14;5.47;;;3.28;;
55150;SDS011;41041;43.162;20.538;2023-03-26T00:36:42;8.52;;;5.20;;
55150;SDS011;41041;43.162;20.538;2023-03-26T00:39:10;12.18;;;7.40;;
55150;SDS011;41041;43.162;20.538;2023-03-26T00:41:38;18.48;;;13.07;;
55150;SDS011;41041;43.162;20.538;2023-03-26T00:44:07;16.13;;;9.95;;
55150;SDS011;41041;43.162;20.538;2023-03-26T00:46:33;16.35;;;10.50;;
55150;SDS011;41041;43.162;20.538;2023-03-26T00:51:38;7.97;;;5.13;;
55150;SDS011;41041;43.162;20.538;2023-03-26T00:54:05;10.23;;;5.78;;
55150;SDS011;41041;43.162;20.538;2023-03-26T00:56:35;36.38;;;16.65;;
55150;SDS011;41041;43.162;20.538;2023-03-26T01:01:50;23.02;;;11.85;;
55150;SDS011;41041;43.162;20.538;2023-03-26T01:06:55;30.88;;;20.27;;
55150;SDS011;41041;43.162;20.538;2023-03-26T01:12:28;19.23;;;13.48;;
55150;SDS011;41041;43.162;20.538;2023-03-26T01:17:47;8.32;;;5.03;;
55150;SDS011;41041;43.162;20.538;2023-03-26T01:20:19;8.05;;;5.25;;
55150;SDS011;41041;43.162;20.538;2023-03-26T01:22:51;6.97;;;5.10;;
55150;SDS011;41041;43.162;20.538;2023-03-26T01:25:20;9.63;;;6.90;;
55150;SDS011;41041;43.162;20.538;2023-03-26T01:27:51;5.95;;;4.65;;
55150;SDS011;41041;43.162;20.538;2023-03-26T01:32:50;11.60;;;7.95;;
55150;SDS011;41041;43.162;20.538;2023-03-26T01:40:27;9.20;;;7.03;;
55150;SDS011;41041;43.162;20.538;2023-03-26T01:45:51;8.25;;;5.50;;
55150;SDS011;41041;43.162;20.538;2023-03-26T01:48:18;3.88;;;2.80;;
55150;SDS011;41041;43.162;20.538;2023-03-26T01:50:44;4.47;;;3.30;;
55150;SDS011;41041;43.162;20.538;2023-03-26T01:53:12;5.72;;;4.15;;
55150;SDS011;41041;43.162;20.538;2023-03-26T01:58:28;30.10;;;18.15;;
55150;SDS011;41041;43.162;20.538;2023-03-26T02:06:46;14.77;;;9.25;;
55150;SDS011;41041;43.162;20.538;2023-03-26T02:09:17;12.18;;;8.07;;
55150;SDS011;41041;43.162;20.538;2023-03-26T02:11:44;10.90;;;6.40;;
55150;SDS011;41041;43.162;20.538;2023-03-26T02:14:11;9.30;;;5.85;;
55150;SDS011;41041;43.162;20.538;2023-03-26T02:16:38;8.25;;;5.18;;
55150;SDS011;41041;43.162;20.538;2023-03-26T02:22:08;12.27;;;7.45;;
55150;SDS011;41041;43.162;20.538;2023-03-26T02:24:41;14.10;;;8.25;;
55150;SDS011;41041;43.162;20.538;2023-03-26T02:27:07;11.00;;;6.25;;
55150;SDS011;41041;43.162;20.538;2023-03-26T02:29:36;9.85;;;6.32;;
55150;SDS011;41041;43.162;20.538;2023-03-26T02:32:07;11.13;;;7.30;;
55150;SDS011;41041;43.162;20.538;2023-03-26T02:34:37;10.77;;;7.60;;
55150;SDS011;41041;43.162;20.538;2023-03-26T02:37:03;11.27;;;6.80;;
55150;SDS011;41041;43.162;20.538;2023-03-26T02:39:29;10.70;;;6.43;;
55150;SDS011;41041;43.162;20.538;2023-03-26T02:41:56;18.45;;;12.05;;
55150;SDS011;41041;43.162;20.538;2023-03-26T02:44:22;13.40;;;9.70;;
55150;SDS011;41041;43.162;20.538;2023-03-26T02:46:48;11.25;;;8.38;;
55150;SDS011;41041;43.162;20.538;2023-03-26T02:49:14;11.32;;;7.45;;
55150;SDS011;41041;43.162;20.538;2023-03-26T02:51:40;10.35;;;7.05;;
55150;SDS011;41041;43.162;20.538;2023-03-26T02:54:06;10.50;;;7.20;;
55150;SDS011;41041;43.162;20.538;2023-03-26T02:56:33;12.23;;;8.45;;
55150;SDS011;41041;43.162;20.538;2023-03-26T02:58:58;10.95;;;7.30;;
55150;SDS011;41041;43.162;20.538;2023-03-26T03:01:24;16.23;;;10.20;;
55150;SDS011;41041;43.162;20.538;2023-03-26T03:03:50;7.60;;;5.05;;
55150;SDS011;41041;43.162;20.538;2023-03-26T03:06:16;7.68;;;4.82;;
55150;SDS011;41041;43.162;20.538;2023-03-26T03:08:42;7.53;;;5.13;;
55150;SDS011;41041;43.162;20.538;2023-03-26T03:11:28;8.10;;;5.25;;
55150;SDS011;41041;43.162;20.538;2023-03-26T03:13:53;8.75;;;5.72;;
55150;SDS011;41041;43.162;20.538;2023-03-26T03:19:15;5.00;;;2.88;;
55150;SDS011;41041;43.162;20.538;2023-03-26T03:21:41;4.68;;;2.55;;
55150;SDS011;41041;43.162;20.538;2023-03-26T03:24:20;4.78;;;3.20;;
55150;SDS011;41041;43.162;20.538;2023-03-26T03:26:47;6.10;;;2.50;;
55150;SDS011;41041;43.162;20.538;2023-03-26T03:29:14;5.75;;;2.70;;
55150;SDS011;41041;43.162;20.538;2023-03-26T03:34:10;7.68;;;3.88;;
55150;SDS011;41041;43.162;20.538;2023-03-26T03:36:36;6.60;;;4.28;;
55150;SDS011;41041;43.162;20.538;2023-03-26T03:39:18;7.45;;;4.22;;
55150;SDS011;41041;43.162;20.538;2023-03-26T03:41:44;5.57;;;3.65;;
55150;SDS011;41041;43.162;20.538;2023-03-26T03:44:10;9.73;;;6.43;;
55150;SDS011;41041;43.162;20.538;2023-03-26T03:46:36;5.38;;;3.60;;
55150;SDS011;41041;43.162;20.538;2023-03-26T03:49:02;4.70;;;3.08;;
55150;SDS011;41041;43.162;20.538;2023-03-26T03:51:28;5.43;;;3.60;;
55150;SDS011;41041;43.162;20.538;2023-03-26T03:53:55;4.28;;;1.95;;
55150;SDS011;41041;43.162;20.538;2023-03-26T03:56:29;5.95;;;3.53;;
55150;SDS011;41041;43.162;20.538;2023-03-26T03:58:55;4.03;;;2.80;;
55150;SDS011;41041;43.162;20.538;2023-03-26T04:01:22;5.55;;;3.13;;
55150;SDS011;41041;43.162;20.538;2023-03-26T04:03:50;4.25;;;2.80;;
55150;SDS011;41041;43.162;20.538;2023-03-26T04:06:16;5.47;;;2.63;;
55150;SDS011;41041;43.162;20.538;2023-03-26T04:08:43;5.30;;;2.60;;
55150;SDS011;41041;43.162;20.538;2023-03-26T04:14:15;3.83;;;2.60;;
55150;SDS011;41041;43.162;20.538;2023-03-26T04:16:41;4.57;;;2.50;;
55150;SDS011;41041;43.162;20.538;2023-03-26T04:19:07;3.85;;;2.58;;
55150;SDS011;41041;43.162;20.538;2023-03-26T04:21:34;7.13;;;3.22;;
55150;SDS011;41041;43.162;20.538;2023-03-26T04:24:02;9.65;;;4.72;;
55150;SDS011;41041;43.162;20.538;2023-03-26T04:26:29;8.43;;;4.45;;
55150;SDS011;41041;43.162;20.538;2023-03-26T04:28:57;8.05;;;4.82;;
55150;SDS011;41041;43.162;20.538;2023-03-26T04:31:25;7.45;;;4.53;;
55150;SDS011;41041;43.162;20.538;2023-03-26T04:36:51;4.70;;;3.03;;
55150;SDS011;41041;43.162;20.538;2023-03-26T04:39:20;4.18;;;2.40;;
55150;SDS011;41041;43.162;20.538;2023-03-26T04:41:51;3.90;;;2.67;;
55150;SDS011;41041;43.162;20.538;2023-03-26T04:44:18;5.45;;;3.47;;
55150;SDS011;41041;43.162;20.538;2023-03-26T04:46:46;7.55;;;3.85;;
55150;SDS011;41041;43.162;20.538;2023-03-26T04:49:12;5.75;;;3.72;;
55150;SDS011;41041;43.162;20.538;2023-03-26T04:51:38;5.40;;;3.20;;
55150;SDS011;41041;43.162;20.538;2023-03-26T04:54:10;6.88;;;3.30;;
55150;SDS011;41041;43.162;20.538;2023-03-26T04:59:17;10.65;;;4.75;;
55150;SDS011;41041;43.162;20.538;2023-03-26T05:01:53;19.13;;;8.70;;
55150;SDS011;41041;43.162;20.538;2023-03-26T05:04:21;10.93;;;5.85;;
55150;SDS011;41041;43.162;20.538;2023-03-26T05:06:46;7.85;;;4.55;;
55150;SDS011;41041;43.162;20.538;2023-03-26T05:09:12;6.22;;;2.80;;
55150;SDS011;41041;43.162;20.538;2023-03-26T05:11:38;7.38;;;2.72;;
55150;SDS011;41041;43.162;20.538;2023-03-26T05:14:04;6.35;;;3.10;;
55150;SDS011;41041;43.162;20.538;2023-03-26T05:16:30;6.20;;;2.80;;
55150;SDS011;41041;43.162;20.538;2023-03-26T05:18:56;5.82;;;3.30;;
55150;SDS011;41041;43.162;20.538;2023-03-26T05:21:21;6.35;;;3.15;;
55150;SDS011;41041;43.162;20.538;2023-03-26T05:23:47;5.75;;;3.10;;
55150;SDS011;41041;43.162;20.538;2023-03-26T05:26:13;6.20;;;3.80;;
55150;SDS011;41041;43.162;20.538;2023-03-26T05:28:39;6.00;;;3.42;;
55150;SDS011;41041;43.162;20.538;2023-03-26T05:31:05;6.53;;;3.85;;
55150;SDS011;41041;43.162;20.538;2023-03-26T05:33:32;8.68;;;4.20;;
55150;SDS011;41041;43.162;20.538;2023-03-26T05:35:59;6.95;;;4.15;;
55150;SDS011;41041;43.162;20.538;2023-03-26T05:38:26;7.53;;;4.95;;
55150;SDS011;41041;43.162;20.538;2023-03-26T05:40:56;7.28;;;4.47;;
55150;SDS011;41041;43.162;20.538;2023-03-26T05:43:25;8.63;;;5.28;;
55150;SDS011;41041;43.162;20.538;2023-03-26T05:45:52;8.45;;;5.85;;
55150;SDS011;41041;43.162;20.538;2023-03-26T05:48:17;8.30;;;5.72;;
55150;SDS011;41041;43.162;20.538;2023-03-26T05:50:55;8.98;;;5.70;;
55150;SDS011;41041;43.162;20.538;2023-03-26T05:53:22;11.60;;;5.32;;
55150;SDS011;41041;43.162;20.538;2023-03-26T05:55:51;9.60;;;5.55;;
55150;SDS011;41041;43.162;20.538;2023-03-26T05:58:29;9.40;;;5.70;;
55150;SDS011;41041;43.162;20.538;2023-03-26T06:01:11;8.73;;;5.75;;
55150;SDS011;41041;43.162;20.538;2023-03-26T06:03:41;6.75;;;4.45;;
55150;SDS011;41041;43.162;20.538;2023-03-26T06:06:20;9.32;;;4.13;;
55150;SDS011;41041;43.162;20.538;2023-03-26T06:08:50;7.90;;;5.40;;
55150;SDS011;41041;43.162;20.538;2023-03-26T06:11:17;9.95;;;5.72;;
55150;SDS011;41041;43.162;20.538;2023-03-26T06:13:44;9.52;;;5.60;;
55150;SDS011;41041;43.162;20.538;2023-03-26T06:16:11;9.63;;;5.30;;
55150;SDS011;41041;43.162;20.538;2023-03-26T06:18:39;10.07;;;4.90;;
55150;SDS011;41041;43.162;20.538;2023-03-26T06:21:05;5.88;;;3.10;;
55150;SDS011;41041;43.162;20.538;2023-03-26T06:23:31;6.35;;;3.83;;
55150;SDS011;41041;43.162;20.538;2023-03-26T06:25:58;8.15;;;3.85;;
55150;SDS011;41041;43.162;20.538;2023-03-26T06:28:24;6.60;;;3.85;;
55150;SDS011;41041;43.162;20.538;2023-03-26T06:30:50;8.90;;;3.72;;
55150;SDS011;41041;43.162;20.538;2023-03-26T06:36:10;7.45;;;4.32;;
55150;SDS011;41041;43.162;20.538;2023-03-26T06:38:36;9.88;;;4.90;;
55150;SDS011;41041;43.162;20.538;2023-03-26T06:41:04;5.95;;;4.13;;
55150;SDS011;41041;43.162;20.538;2023-03-26T06:43:30;10.38;;;6.07;;
55150;SDS011;41041;43.162;20.538;2023-03-26T06:46:00;23.50;;;7.65;;
55150;SDS011;41041;43.162;20.538;2023-03-26T06:48:29;17.77;;;8.52;;
55150;SDS011;41041;43.162;20.538;2023-03-26T06:50:54;13.23;;;6.68;;
55150;SDS011;41041;43.162;20.538;2023-03-26T06:53:20;16.45;;;7.00;;
55150;SDS011;41041;43.162;20.538;2023-03-26T06:55:46;9.52;;;5.30;;
55150;SDS011;41041;43.162;20.538;2023-03-26T06:58:12;10.13;;;5.30;;
55150;SDS011;41041;43.162;20.538;2023-03-26T07:00:38;7.68;;;4.95;;
55150;SDS011;41041;43.162;20.538;2023-03-26T07:03:04;8.27;;;5.05;;
55150;SDS011;41041;43.162;20.538;2023-03-26T07:05:30;13.18;;;6.85;;
55150;SDS011;41041;43.162;20.538;2023-03-26T07:07:56;15.05;;;7.50;;
55150;SDS011;41041;43.162;20.538;2023-03-26T07:10:22;12.65;;;8.55;;
55150;SDS011;41041;43.162;20.538;2023-03-26T07:12:48;13.40;;;8.27;;
55150;SDS011;41041;43.162;20.538;2023-03-26T07:15:13;14.65;;;8.15;;
55150;SDS011;41041;43.162;20.538;2023-03-26T07:17:39;12.63;;;8.57;;
55150;SDS011;41041;43.162;20.538;2023-03-26T07:20:05;11.90;;;6.82;;
55150;SDS011;41041;43.162;20.538;2023-03-26T07:22:32;10.85;;;6.75;;
55150;SDS011;41041;43.162;20.538;2023-03-26T07:25:06;7.63;;;5.13;;
55150;SDS011;41041;43.162;20.538;2023-03-26T07:27:43;6.15;;;4.20;;
55150;SDS011;41041;43.162;20.538;2023-03-26T07:43:16;4.95;;;3.03;;
55150;SDS011;41041;43.162;20.538;2023-03-26T07:45:46;7.95;;;3.42;;
55150;SDS011;41041;43.162;20.538;2023-03-26T07:48:21;7.28;;;4.07;;
55150;SDS011;41041;43.162;20.538;2023-03-26T07:50:52;5.35;;;3.53;;
55150;SDS011;41041;43.162;20.538;2023-03-26T07:53:19;6.10;;;4.00;;
55150;SDS011;41041;43.162;20.538;2023-03-26T08:15:36;2.38;;;1.50;;
55150;SDS011;41041;43.162;20.538;2023-03-26T08:20:50;4.75;;;1.70;;
55150;SDS011;41041;43.162;20.538;2023-03-26T08:23:25;4.03;;;1.40;;
55150;SDS011;41041;43.162;20.538;2023-03-26T08:31:35;3.00;;;1.60;;
55150;SDS011;41041;43.162;20.538;2023-03-26T08:34:05;5.85;;;2.20;;
55150;SDS011;41041;43.162;20.538;2023-03-26T08:36:31;5.78;;;1.67;;
55150;SDS011;41041;43.162;20.538;2023-03-26T08:38:57;4.88;;;2.20;;
55150;SDS011;41041;43.162;20.538;2023-03-26T08:54:21;8.35;;;1.20;;
55150;SDS011;41041;43.162;20.538;2023-03-26T08:56:52;4.65;;;1.60;;
55150;SDS011;41041;43.162;20.538;2023-03-26T09:03:04;4.13;;;1.08;;
55150;SDS011;41041;43.162;20.538;2023-03-26T09:26:17;2.55;;;0.60;;
55150;SDS011;41041;43.162;20.538;2023-03-26T09:36:52;1.50;;;0.60;;
55150;SDS011;41041;43.162;20.538;2023-03-26T09:51:56;1.17;;;0.60;;
55150;SDS011;41041;43.162;20.538;2023-03-26T09:57:28;2.13;;;0.85;;
55150;SDS011;41041;43.162;20.538;2023-03-26T10:00:04;1.17;;;0.57;;
55150;SDS011;41041;43.162;20.538;2023-03-26T10:02:38;2.95;;;0.60;;
55150;SDS011;41041;43.162;20.538;2023-03-26T10:07:40;2.72;;;0.50;;
55150;SDS011;41041;43.162;20.538;2023-03-26T10:12:47;2.42;;;0.77;;
55150;SDS011;41041;43.162;20.538;2023-03-26T10:41:48;4.32;;;1.40;;
55150;SDS011;41041;43.162;20.538;2023-03-26T10:52:28;0.95;;;0.30;;
55150;SDS011;41041;43.162;20.538;2023-03-26T11:00:26;11.25;;;0.90;;
55150;SDS011;41041;43.162;20.538;2023-03-26T11:07:53;24.80;;;1.98;;
55150;SDS011;41041;43.162;20.538;2023-03-26T11:15:55;6.30;;;1.10;;
55150;SDS011;41041;43.162;20.538;2023-03-26T11:18:22;5.20;;;0.63;;
55150;SDS011;41041;43.162;20.538;2023-03-26T11:23:35;6.55;;;0.90;;
55150;SDS011;41041;43.162;20.538;2023-03-26T11:26:05;3.13;;;0.70;;
55150;SDS011;41041;43.162;20.538;2023-03-26T11:33:59;1.00;;;0.50;;
55150;SDS011;41041;43.162;20.538;2023-03-26T11:36:30;5.63;;;0.73;;
55150;SDS011;41041;43.162;20.538;2023-03-26T11:39:09;5.82;;;0.65;;
55150;SDS011;41041;43.162;20.538;2023-03-26T11:41:39;15.77;;;1.50;;
55150;SDS011;41041;43.162;20.538;2023-03-26T11:44:17;7.72;;;1.00;;
55150;SDS011;41041;43.162;20.538;2023-03-26T11:46:45;14.38;;;1.00;;
55150;SDS011;41041;43.162;20.538;2023-03-26T11:49:22;1.15;;;0.60;;
55150;SDS011;41041;43.162;20.538;2023-03-26T11:51:50;1.75;;;0.60;;
55150;SDS011;41041;43.162;20.538;2023-03-26T11:54:16;1.50;;;0.50;;
55150;SDS011;41041;43.162;20.538;2023-03-26T12:01:47;1.30;;;0.60;;
55150;SDS011;41041;43.162;20.538;2023-03-26T12:04:18;3.25;;;0.70;;
55150;SDS011;41041;43.162;20.538;2023-03-26T12:06:55;7.22;;;0.90;;
55150;SDS011;41041;43.162;20.538;2023-03-26T12:09:21;8.38;;;0.85;;
55150;SDS011;41041;43.162;20.538;2023-03-26T12:11:48;1.55;;;0.73;;
55150;SDS011;41041;43.162;20.538;2023-03-26T12:14:17;2.60;;;0.93;;
55150;SDS011;41041;43.162;20.538;2023-03-26T12:16:55;7.55;;;0.90;;
55150;SDS011;41041;43.162;20.538;2023-03-26T12:19:26;2.08;;;0.80;;
55150;SDS011;41041;43.162;20.538;2023-03-26T12:22:00;2.03;;;0.95;;
55150;SDS011;41041;43.162;20.538;2023-03-26T12:24:30;3.10;;;0.90;;
55150;SDS011;41041;43.162;20.538;2023-03-26T12:29:52;1.05;;;0.70;;
55150;SDS011;41041;43.162;20.538;2023-03-26T12:32:32;2.50;;;0.80;;
55150;SDS011;41041;43.162;20.538;2023-03-26T12:35:03;1.33;;;0.70;;
55150;SDS011;41041;43.162;20.538;2023-03-26T12:37:35;3.28;;;0.80;;
55150;SDS011;41041;43.162;20.538;2023-03-26T12:40:07;2.75;;;0.90;;
55150;SDS011;41041;43.162;20.538;2023-03-26T12:42:54;2.60;;;0.80;;
55150;SDS011;41041;43.162;20.538;2023-03-26T12:45:22;5.85;;;1.08;;
55150;SDS011;41041;43.162;20.538;2023-03-26T12:48:01;3.88;;;1.08;;
55150;SDS011;41041;43.162;20.538;2023-03-26T12:50:32;5.18;;;1.23;;
55150;SDS011;41041;43.162;20.538;2023-03-26T13:04:16;6.05;;;1.83;;
55150;SDS011;41041;43.162;20.538;2023-03-26T13:17:49;1.67;;;0.77;;
55150;SDS011;41041;43.162;20.538;2023-03-26T13:29:21;18.40;;;1.55;;
55150;SDS011;41041;43.162;20.538;2023-03-26T13:37:47;16.98;;;1.30;;
55150;SDS011;41041;43.162;20.538;2023-03-26T13:40:24;1.67;;;0.70;;
55150;SDS011;41041;43.162;20.538;2023-03-26T13:59:34;1.98;;;0.75;;
55150;SDS011;41041;43.162;20.538;2023-03-26T14:02:18;2.17;;;0.73;;
55150;SDS011;41041;43.162;20.538;2023-03-26T14:04:54;4.65;;;1.58;;
55150;SDS011;41041;43.162;20.538;2023-03-26T14:07:26;9.65;;;5.35;;
55150;SDS011;41041;43.162;20.538;2023-03-26T14:12:51;2.08;;;0.98;;
55150;SDS011;41041;43.162;20.538;2023-03-26T14:18:19;6.88;;;0.93;;
55150;SDS011;41041;43.162;20.538;2023-03-26T14:23:57;11.80;;;1.30;;
55150;SDS011;41041;43.162;20.538;2023-03-26T14:34:50;35.50;;;2.20;;
55150;SDS011;41041;43.162;20.538;2023-03-26T14:40:48;3.33;;;1.10;;
55150;SDS011;41041;43.162;20.538;2023-03-26T14:43:30;30.25;;;2.55;;
55150;SDS011;41041;43.162;20.538;2023-03-26T14:54:19;26.20;;;12.15;;
55150;SDS011;41041;43.162;20.538;2023-03-26T15:08:28;16.25;;;4.05;;
55150;SDS011;41041;43.162;20.538;2023-03-26T15:39:50;24.92;;;3.53;;
55150;SDS011;41041;43.162;20.538;2023-03-26T15:52:04;8.88;;;2.80;;
55150;SDS011;41041;43.162;20.538;2023-03-26T15:57:18;16.35;;;2.63;;
55150;SDS011;41041;43.162;20.538;2023-03-26T16:03:05;19.58;;;3.50;;
55150;SDS011;41041;43.162;20.538;2023-03-26T16:11:02;12.75;;;3.65;;
55150;SDS011;41041;43.162;20.538;2023-03-26T16:13:36;4.30;;;2.40;;
55150;SDS011;41041;43.162;20.538;2023-03-26T16:28:08;29.88;;;3.80;;
55150;SDS011;41041;43.162;20.538;2023-03-26T16:33:17;18.63;;;4.18;;
55150;SDS011;41041;43.162;20.538;2023-03-26T16:35:59;29.40;;;5.50;;
55150;SDS011;41041;43.162;20.538;2023-03-26T16:38:27;29.02;;;4.47;;
55150;SDS011;41041;43.162;20.538;2023-03-26T16:41:18;46.38;;;5.25;;
55150;SDS011;41041;43.162;20.538;2023-03-26T16:43:54;46.55;;;5.57;;
55150;SDS011;41041;43.162;20.538;2023-03-26T16:55:18;16.15;;;5.00;;
55150;SDS011;41041;43.162;20.538;2023-03-26T17:03:33;15.82;;;4.20;;
55150;SDS011;41041;43.162;20.538;2023-03-26T17:06:21;8.23;;;3.70;;
55150;SDS011;41041;43.162;20.538;2023-03-26T17:09:28;13.00;;;3.08;;
55150;SDS011;41041;43.162;20.538;2023-03-26T17:14:54;37.33;;;6.55;;
55150;SDS011;41041;43.162;20.538;2023-03-26T17:25:39;19.27;;;9.43;;
55150;SDS011;41041;43.162;20.538;2023-03-26T17:47:25;20.55;;;8.77;;
55150;SDS011;41041;43.162;20.538;2023-03-26T17:55:20;34.72;;;11.00;;
55150;SDS011;41041;43.162;20.538;2023-03-26T17:57:58;30.45;;;11.07;;
55150;SDS011;41041;43.162;20.538;2023-03-26T18:00:30;24.98;;;10.18;;
55150;SDS011;41041;43.162;20.538;2023-03-26T18:02:59;42.22;;;7.68;;
55150;SDS011;41041;43.162;20.538;2023-03-26T18:18:57;56.78;;;9.50;;
55150;SDS011;41041;43.162;20.538;2023-03-26T18:21:30;52.80;;;8.57;;
55150;SDS011;41041;43.162;20.538;2023-03-26T18:24:00;24.42;;;8.13;;
55150;SDS011;41041;43.162;20.538;2023-03-26T18:26:32;29.23;;;7.28;;
55150;SDS011;41041;43.162;20.538;2023-03-26T18:31:39;20.33;;;6.85;;
55150;SDS011;41041;43.162;20.538;2023-03-26T18:34:16;43.17;;;9.02;;
55150;SDS011;41041;43.162;20.538;2023-03-26T18:36:44;54.95;;;8.25;;
55150;SDS011;41041;43.162;20.538;2023-03-26T18:39:11;17.73;;;7.00;;
55150;SDS011;41041;43.162;20.538;2023-03-26T18:44:17;17.48;;;6.97;;
55150;SDS011;41041;43.162;20.538;2023-03-26T18:46:44;35.72;;;7.10;;
55150;SDS011;41041;43.162;20.538;2023-03-26T18:49:11;19.73;;;6.38;;
55150;SDS011;41041;43.162;20.538;2023-03-26T18:51:38;14.50;;;5.90;;
55150;SDS011;41041;43.162;20.538;2023-03-26T18:54:04;12.52;;;5.50;;
55150;SDS011;41041;43.162;20.538;2023-03-26T18:56:34;10.80;;;5.70;;
55150;SDS011;41041;43.162;20.538;2023-03-26T18:59:01;27.20;;;5.90;;
55150;SDS011;41041;43.162;20.538;2023-03-26T19:01:29;15.88;;;5.00;;
55150;SDS011;41041;43.162;20.538;2023-03-26T19:06:44;20.58;;;7.13;;
55150;SDS011;41041;43.162;20.538;2023-03-26T19:09:11;32.28;;;8.35;;
55150;SDS011;41041;43.162;20.538;2023-03-26T19:11:37;49.63;;;10.52;;
55150;SDS011;41041;43.162;20.538;2023-03-26T19:14:06;45.40;;;10.63;;
55150;SDS011;41041;43.162;20.538;2023-03-26T19:16:32;33.13;;;10.35;;
55150;SDS011;41041;43.162;20.538;2023-03-26T19:19:04;18.35;;;8.43;;
55150;SDS011;41041;43.162;20.538;2023-03-26T19:21:31;23.27;;;8.00;;
55150;SDS011;41041;43.162;20.538;2023-03-26T19:23:59;18.33;;;7.65;;
55150;SDS011;41041;43.162;20.538;2023-03-26T19:26:25;25.65;;;7.95;;
55150;SDS011;41041;43.162;20.538;2023-03-26T19:28:53;75.28;;;21.35;;
55150;SDS011;41041;43.162;20.538;2023-03-26T19:31:24;35.92;;;12.52;;
55150;SDS011;41041;43.162;20.538;2023-03-26T19:33:59;35.08;;;13.75;;
55150;SDS011;41041;43.162;20.538;2023-03-26T19:36:26;37.25;;;13.52;;
55150;SDS011;41041;43.162;20.538;2023-03-26T19:41:37;49.80;;;15.05;;
55150;SDS011;41041;43.162;20.538;2023-03-26T19:44:25;52.95;;;13.63;;
55150;SDS011;41041;43.162;20.538;2023-03-26T19:47:00;37.63;;;11.75;;
55150;SDS011;41041;43.162;20.538;2023-03-26T19:49:32;23.17;;;7.68;;
55150;SDS011;41041;43.162;20.538;2023-03-26T19:52:32;37.60;;;12.52;;
55150;SDS011;41041;43.162;20.538;2023-03-26T19:55:01;42.65;;;12.98;;
55150;SDS011;41041;43.162;20.538;2023-03-26T19:57:36;57.65;;;18.40;;
55150;SDS011;41041;43.162;20.538;2023-03-26T20:00:03;58.20;;;17.88;;
55150;SDS011;41041;43.162;20.538;2023-03-26T20:02:37;30.08;;;10.45;;
55150;SDS011;41041;43.162;20.538;2023-03-26T20:05:03;24.40;;;7.63;;
55150;SDS011;41041;43.162;20.538;2023-03-26T20:07:29;20.02;;;7.18;;
55150;SDS011;41041;43.162;20.538;2023-03-26T20:09:55;18.88;;;6.43;;
55150;SDS011;41041;43.162;20.538;2023-03-26T20:12:21;22.50;;;5.95;;
55150;SDS011;41041;43.162;20.538;2023-03-26T20:14:47;11.15;;;5.78;;
55150;SDS011;41041;43.162;20.538;2023-03-26T20:17:14;13.23;;;5.07;;
55150;SDS011;41041;43.162;20.538;2023-03-26T20:19:41;8.88;;;5.03;;
55150;SDS011;41041;43.162;20.538;2023-03-26T20:22:12;12.18;;;5.20;;
55150;SDS011;41041;43.162;20.538;2023-03-26T20:24:39;11.50;;;3.80;;
55150;SDS011;41041;43.162;20.538;2023-03-26T20:27:06;12.80;;;3.58;;
55150;SDS011;41041;43.162;20.538;2023-03-26T20:29:32;35.08;;;5.10;;
55150;SDS011;41041;43.162;20.538;2023-03-26T20:31:58;9.45;;;4.20;;
55150;SDS011;41041;43.162;20.538;2023-03-26T20:34:24;24.25;;;6.18;;
55150;SDS011;41041;43.162;20.538;2023-03-26T20:36:51;12.90;;;5.35;;
55150;SDS011;41041;43.162;20.538;2023-03-26T20:39:21;10.23;;;5.40;;
55150;SDS011;41041;43.162;20.538;2023-03-26T20:41:48;13.63;;;7.53;;
55150;SDS011;41041;43.162;20.538;2023-03-26T20:44:16;20.52;;;8.90;;
55150;SDS011;41041;43.162;20.538;2023-03-26T20:46:45;6.97;;;3.75;;
55150;SDS011;41041;43.162;20.538;2023-03-26T20:49:12;11.00;;;3.92;;
55150;SDS011;41041;43.162;20.538;2023-03-26T20:51:39;9.27;;;5.55;;
55150;SDS011;41041;43.162;20.538;2023-03-26T20:54:17;6.43;;;3.72;;
55150;SDS011;41041;43.162;20.538;2023-03-26T20:56:45;10.60;;;5.30;;
55150;SDS011;41041;43.162;20.538;2023-03-26T20:59:19;15.18;;;5.93;;
55150;SDS011;41041;43.162;20.538;2023-03-26T21:01:46;20.13;;;6.72;;
55150;SDS011;41041;43.162;20.538;2023-03-26T21:04:13;14.98;;;6.97;;
55150;SDS011;41041;43.162;20.538;2023-03-26T21:06:40;20.17;;;8.88;;
55150;SDS011;41041;43.162;20.538;2023-03-26T21:09:08;24.38;;;8.80;;
55150;SDS011;41041;43.162;20.538;2023-03-26T21:14:19;39.60;;;8.63;;
55150;SDS011;41041;43.162;20.538;2023-03-26T21:16:48;19.98;;;8.38;;
55150;SDS011;41041;43.162;20.538;2023-03-26T21:19:14;13.32;;;5.25;;
55150;SDS011;41041;43.162;20.538;2023-03-26T21:30:20;25.13;;;5.32;;
55150;SDS011;41041;43.162;20.538;2023-03-26T21:32:47;11.93;;;4.80;;
55150;SDS011;41041;43.162;20.538;2023-03-26T21:35:14;9.20;;;3.65;;
55150;SDS011;41041;43.162;20.538;2023-03-26T21:37:41;8.25;;;4.32;;
55150;SDS011;41041;43.162;20.538;2023-03-26T21:40:11;29.08;;;5.47;;
55150;SDS011;41041;43.162;20.538;2023-03-26T21:42:43;17.33;;;6.97;;
55150;SDS011;41041;43.162;20.538;2023-03-26T21:45:10;21.67;;;6.20;;
55150;SDS011;41041;43.162;20.538;2023-03-26T21:47:37;15.70;;;5.80;;
55150;SDS011;41041;43.162;20.538;2023-03-26T21:50:04;8.93;;;5.03;;
55150;SDS011;41041;43.162;20.538;2023-03-26T21:52:30;12.80;;;5.10;;
55150;SDS011;41041;43.162;20.538;2023-03-26T21:54:57;12.57;;;5.38;;
55150;SDS011;41041;43.162;20.538;2023-03-26T22:00:05;20.63;;;8.43;;
55150;SDS011;41041;43.162;20.538;2023-03-26T22:05:16;25.42;;;8.18;;
55150;SDS011;41041;43.162;20.538;2023-03-26T22:10:08;21.13;;;8.68;;
55150;SDS011;41041;43.162;20.538;2023-03-26T22:15:38;32.63;;;11.10;;
55150;SDS011;41041;43.162;20.538;2023-03-26T22:18:04;34.53;;;12.82;;
55150;SDS011;41041;43.162;20.538;2023-03-26T22:20:31;23.88;;;7.50;;
55150;SDS011;41041;43.162;20.538;2023-03-26T22:22:58;18.38;;;5.45;;
55150;SDS011;41041;43.162;20.538;2023-03-26T22:25:24;12.45;;;4.43;;
55150;SDS011;41041;43.162;20.538;2023-03-26T22:27:51;14.05;;;6.68;;
55150;SDS011;41041;43.162;20.538;2023-03-26T22:30:18;11.88;;;6.10;;
55150;SDS011;41041;43.162;20.538;2023-03-26T22:32:44;37.85;;;12.23;;
55150;SDS011;41041;43.162;20.538;2023-03-26T22:35:11;29.55;;;10.80;;
55150;SDS011;41041;43.162;20.538;2023-03-26T22:37:38;20.17;;;7.72;;
55150;SDS011;41041;43.162;20.538;2023-03-26T22:40:04;23.75;;;8.80;;
55150;SDS011;41041;43.162;20.538;2023-03-26T22:42:32;29.15;;;8.40;;
55150;SDS011;41041;43.162;20.538;2023-03-26T22:44:58;10.13;;;4.40;;
55150;SDS011;41041;43.162;20.538;2023-03-26T22:47:24;8.70;;;3.85;;